sensor_id;sensor_type;location;lat;lon;timestamp;P1;durP1;ratioP1;P2;durP2;ratioP2
3465;SDS011;1747;48.884;9.160;2023-05-07T00:02:02;3.25;;;2.30;;
3465;SDS011;1747;48.884;9.160;2023-05-07T00:04:30;3.25;;;2.17;;
3465;SDS011;1747;48.884;9.160;2023-05-07T00:07:01;3.15;;;2.38;;
3465;SDS011;1747;48.884;9.160;2023-05-07T00:09:28;5.57;;;2.10;;
3465;SDS011;1747;48.884;9.160;2023-05-07T00:11:55;4.22;;;2.00;;
3465;SDS011;1747;48.884;9.160;2023-05-07T00:14:22;7.88;;;2.35;;
3465;SDS011;1747;48.884;9.160;2023-05-07T00:16:48;2.53;;;1.83;;
3465;SDS011;1747;48.884;9.160;2023-05-07T00:19:15;3.20;;;2.17;;
3465;SDS011;1747;48.884;9.160;2023-05-07T00:21:43;2.65;;;2.10;;
3465;SDS011;1747;48.884;9.160;2023-05-07T00:24:10;4.10;;;2.30;;
3465;SDS011;1747;48.884;9.160;2023-05-07T00:26:37;3.25;;;2.33;;
3465;SDS011;1747;48.884;9.160;2023-05-07T00:29:04;4.80;;;2.30;;
3465;SDS011;1747;48.884;9.160;2023-05-07T00:31:30;3.28;;;2.25;;
3465;SDS011;1747;48.884;9.160;2023-05-07T00:33:57;2.50;;;1.67;;
3465;SDS011;1747;48.884;9.160;2023-05-07T00:36:24;2.38;;;1.98;;
3465;SDS011;1747;48.884;9.160;2023-05-07T00:38:53;3.58;;;2.22;;
3465;SDS011;1747;48.884;9.160;2023-05-07T00:41:21;3.67;;;2.42;;
3465;SDS011;1747;48.884;9.160;2023-05-07T00:43:47;4.50;;;2.58;;
3465;SDS011;1747;48.884;9.160;2023-05-07T00:46:16;2.10;;;1.67;;
3465;SDS011;1747;48.884;9.160;2023-05-07T00:48:43;2.90;;;1.90;;
3465;SDS011;1747;48.884;9.160;2023-05-07T00:51:10;2.72;;;2.28;;
3465;SDS011;1747;48.884;9.160;2023-05-07T00:53:37;2.92;;;2.40;;
3465;SDS011;1747;48.884;9.160;2023-05-07T00:56:06;2.72;;;2.10;;
3465;SDS011;1747;48.884;9.160;2023-05-07T00:58:33;2.83;;;1.85;;
3465;SDS011;1747;48.884;9.160;2023-05-07T01:01:01;3.55;;;2.30;;
3465;SDS011;1747;48.884;9.160;2023-05-07T01:03:28;2.92;;;2.00;;
3465;SDS011;1747;48.884;9.160;2023-05-07T01:05:55;2.33;;;2.00;;
3465;SDS011;1747;48.884;9.160;2023-05-07T01:08:25;2.92;;;2.20;;
3465;SDS011;1747;48.884;9.160;2023-05-07T01:10:54;4.60;;;2.05;;
3465;SDS011;1747;48.884;9.160;2023-05-07T01:13:23;2.25;;;2.00;;
3465;SDS011;1747;48.884;9.160;2023-05-07T01:15:50;2.00;;;1.85;;
3465;SDS011;1747;48.884;9.160;2023-05-07T01:18:17;2.35;;;1.83;;
3465;SDS011;1747;48.884;9.160;2023-05-07T01:20:45;2.40;;;2.13;;
3465;SDS011;1747;48.884;9.160;2023-05-07T01:23:13;2.42;;;2.10;;
3465;SDS011;1747;48.884;9.160;2023-05-07T01:25:42;3.83;;;2.00;;
3465;SDS011;1747;48.884;9.160;2023-05-07T01:28:09;4.05;;;2.53;;
3465;SDS011;1747;48.884;9.160;2023-05-07T01:30:36;2.70;;;1.95;;
3465;SDS011;1747;48.884;9.160;2023-05-07T01:33:13;2.90;;;1.98;;
3465;SDS011;1747;48.884;9.160;2023-05-07T01:35:42;6.88;;;2.00;;
3465;SDS011;1747;48.884;9.160;2023-05-07T01:38:13;4.35;;;2.10;;
3465;SDS011;1747;48.884;9.160;2023-05-07T01:40:40;3.33;;;1.77;;
3465;SDS011;1747;48.884;9.160;2023-05-07T01:43:07;2.15;;;1.95;;
3465;SDS011;1747;48.884;9.160;2023-05-07T01:45:36;6.30;;;2.05;;
3465;SDS011;1747;48.884;9.160;2023-05-07T01:48:04;2.80;;;1.90;;
3465;SDS011;1747;48.884;9.160;2023-05-07T01:50:32;3.25;;;2.38;;
3465;SDS011;1747;48.884;9.160;2023-05-07T01:53:01;3.65;;;2.33;;
3465;SDS011;1747;48.884;9.160;2023-05-07T01:55:29;2.95;;;2.50;;
3465;SDS011;1747;48.884;9.160;2023-05-07T01:57:56;3.40;;;2.30;;
3465;SDS011;1747;48.884;9.160;2023-05-07T02:00:23;4.03;;;2.65;;
3465;SDS011;1747;48.884;9.160;2023-05-07T02:02:50;4.20;;;2.50;;
3465;SDS011;1747;48.884;9.160;2023-05-07T02:05:17;2.92;;;2.42;;
3465;SDS011;1747;48.884;9.160;2023-05-07T02:07:44;3.72;;;2.90;;
3465;SDS011;1747;48.884;9.160;2023-05-07T02:10:11;4.55;;;2.63;;
3465;SDS011;1747;48.884;9.160;2023-05-07T02:12:39;2.90;;;2.33;;
3465;SDS011;1747;48.884;9.160;2023-05-07T02:15:07;3.05;;;2.75;;
3465;SDS011;1747;48.884;9.160;2023-05-07T02:17:35;2.65;;;2.00;;
3465;SDS011;1747;48.884;9.160;2023-05-07T02:20:05;3.90;;;2.17;;
3465;SDS011;1747;48.884;9.160;2023-05-07T02:22:38;5.40;;;2.22;;
3465;SDS011;1747;48.884;9.160;2023-05-07T02:25:05;2.40;;;2.20;;
3465;SDS011;1747;48.884;9.160;2023-05-07T02:27:32;3.17;;;2.78;;
3465;SDS011;1747;48.884;9.160;2023-05-07T02:30:00;3.35;;;2.72;;
3465;SDS011;1747;48.884;9.160;2023-05-07T02:32:27;3.42;;;2.90;;
3465;SDS011;1747;48.884;9.160;2023-05-07T02:34:53;2.90;;;2.47;;
3465;SDS011;1747;48.884;9.160;2023-05-07T02:37:20;3.55;;;2.30;;
3465;SDS011;1747;48.884;9.160;2023-05-07T02:39:47;4.10;;;2.50;;
3465;SDS011;1747;48.884;9.160;2023-05-07T02:42:14;3.47;;;2.00;;
3465;SDS011;1747;48.884;9.160;2023-05-07T02:44:41;4.00;;;2.83;;
3465;SDS011;1747;48.884;9.160;2023-05-07T02:47:09;6.05;;;2.72;;
3465;SDS011;1747;48.884;9.160;2023-05-07T02:49:38;3.78;;;2.20;;
3465;SDS011;1747;48.884;9.160;2023-05-07T02:52:04;4.00;;;2.13;;
3465;SDS011;1747;48.884;9.160;2023-05-07T02:54:31;2.38;;;2.17;;
3465;SDS011;1747;48.884;9.160;2023-05-07T02:56:58;3.40;;;2.60;;
3465;SDS011;1747;48.884;9.160;2023-05-07T02:59:25;3.25;;;2.30;;
3465;SDS011;1747;48.884;9.160;2023-05-07T03:01:52;3.03;;;2.20;;
3465;SDS011;1747;48.884;9.160;2023-05-07T03:04:20;2.72;;;2.20;;
3465;SDS011;1747;48.884;9.160;2023-05-07T03:06:47;4.43;;;2.70;;
3465;SDS011;1747;48.884;9.160;2023-05-07T03:09:14;4.55;;;2.10;;
3465;SDS011;1747;48.884;9.160;2023-05-07T03:11:41;3.50;;;2.20;;
3465;SDS011;1747;48.884;9.160;2023-05-07T03:14:08;3.83;;;2.15;;
3465;SDS011;1747;48.884;9.160;2023-05-07T03:16:35;3.58;;;2.40;;
3465;SDS011;1747;48.884;9.160;2023-05-07T03:19:02;3.78;;;2.45;;
3465;SDS011;1747;48.884;9.160;2023-05-07T03:21:30;2.55;;;2.25;;
3465;SDS011;1747;48.884;9.160;2023-05-07T03:23:58;2.60;;;2.30;;
3465;SDS011;1747;48.884;9.160;2023-05-07T03:26:25;1.80;;;1.67;;
3465;SDS011;1747;48.884;9.160;2023-05-07T03:28:52;5.20;;;1.95;;
3465;SDS011;1747;48.884;9.160;2023-05-07T03:31:19;3.25;;;2.42;;
3465;SDS011;1747;48.884;9.160;2023-05-07T03:33:50;3.33;;;2.70;;
3465;SDS011;1747;48.884;9.160;2023-05-07T03:36:19;2.42;;;2.10;;
3465;SDS011;1747;48.884;9.160;2023-05-07T03:38:47;4.43;;;2.47;;
3465;SDS011;1747;48.884;9.160;2023-05-07T03:41:14;4.15;;;2.25;;
3465;SDS011;1747;48.884;9.160;2023-05-07T03:43:41;3.35;;;2.13;;
3465;SDS011;1747;48.884;9.160;2023-05-07T03:46:08;3.55;;;2.28;;
3465;SDS011;1747;48.884;9.160;2023-05-07T03:48:35;3.42;;;2.20;;
3465;SDS011;1747;48.884;9.160;2023-05-07T03:51:02;2.00;;;1.73;;
3465;SDS011;1747;48.884;9.160;2023-05-07T03:53:28;4.70;;;2.40;;
3465;SDS011;1747;48.884;9.160;2023-05-07T03:55:57;2.92;;;2.20;;
3465;SDS011;1747;48.884;9.160;2023-05-07T03:58:23;4.35;;;1.98;;
3465;SDS011;1747;48.884;9.160;2023-05-07T04:00:50;3.22;;;2.15;;
3465;SDS011;1747;48.884;9.160;2023-05-07T04:03:17;2.80;;;2.00;;
3465;SDS011;1747;48.884;9.160;2023-05-07T04:05:44;2.33;;;1.95;;
3465;SDS011;1747;48.884;9.160;2023-05-07T04:08:10;3.25;;;2.10;;
3465;SDS011;1747;48.884;9.160;2023-05-07T04:10:37;2.90;;;2.17;;
3465;SDS011;1747;48.884;9.160;2023-05-07T04:13:05;2.63;;;2.13;;
3465;SDS011;1747;48.884;9.160;2023-05-07T04:15:32;3.42;;;2.22;;
3465;SDS011;1747;48.884;9.160;2023-05-07T04:17:59;2.92;;;2.63;;
3465;SDS011;1747;48.884;9.160;2023-05-07T04:20:25;4.97;;;2.58;;
3465;SDS011;1747;48.884;9.160;2023-05-07T04:22:52;3.53;;;2.40;;
3465;SDS011;1747;48.884;9.160;2023-05-07T04:25:19;3.17;;;2.00;;
3465;SDS011;1747;48.884;9.160;2023-05-07T04:27:46;3.70;;;2.17;;
3465;SDS011;1747;48.884;9.160;2023-05-07T04:30:15;3.13;;;2.33;;
3465;SDS011;1747;48.884;9.160;2023-05-07T04:32:42;3.30;;;2.25;;
3465;SDS011;1747;48.884;9.160;2023-05-07T04:35:09;2.47;;;2.28;;
3465;SDS011;1747;48.884;9.160;2023-05-07T04:37:36;2.53;;;1.95;;
3465;SDS011;1747;48.884;9.160;2023-05-07T04:40:03;4.10;;;2.05;;
3465;SDS011;1747;48.884;9.160;2023-05-07T04:42:30;2.60;;;2.15;;
3465;SDS011;1747;48.884;9.160;2023-05-07T04:44:57;4.38;;;2.67;;
3465;SDS011;1747;48.884;9.160;2023-05-07T04:47:26;4.75;;;2.53;;
3465;SDS011;1747;48.884;9.160;2023-05-07T04:49:53;3.35;;;2.47;;
3465;SDS011;1747;48.884;9.160;2023-05-07T04:52:19;2.83;;;2.50;;
3465;SDS011;1747;48.884;9.160;2023-05-07T04:54:46;4.20;;;2.53;;
3465;SDS011;1747;48.884;9.160;2023-05-07T04:57:13;3.10;;;2.60;;
3465;SDS011;1747;48.884;9.160;2023-05-07T04:59:42;6.47;;;2.67;;
3465;SDS011;1747;48.884;9.160;2023-05-07T05:02:09;4.90;;;3.92;;
3465;SDS011;1747;48.884;9.160;2023-05-07T05:04:37;3.47;;;2.90;;
3465;SDS011;1747;48.884;9.160;2023-05-07T05:07:04;4.18;;;2.40;;
3465;SDS011;1747;48.884;9.160;2023-05-07T05:09:31;4.47;;;3.08;;
3465;SDS011;1747;48.884;9.160;2023-05-07T05:11:57;6.32;;;2.95;;
3465;SDS011;1747;48.884;9.160;2023-05-07T05:14:25;3.33;;;3.03;;
3465;SDS011;1747;48.884;9.160;2023-05-07T05:16:52;3.33;;;2.75;;
3465;SDS011;1747;48.884;9.160;2023-05-07T05:19:19;4.50;;;2.22;;
3465;SDS011;1747;48.884;9.160;2023-05-07T05:21:47;3.80;;;2.88;;
3465;SDS011;1747;48.884;9.160;2023-05-07T05:24:13;2.97;;;2.67;;
3465;SDS011;1747;48.884;9.160;2023-05-07T05:26:41;3.75;;;2.90;;
3465;SDS011;1747;48.884;9.160;2023-05-07T05:29:08;3.45;;;2.70;;
3465;SDS011;1747;48.884;9.160;2023-05-07T05:31:35;2.78;;;2.50;;
3465;SDS011;1747;48.884;9.160;2023-05-07T05:34:02;3.05;;;2.63;;
3465;SDS011;1747;48.884;9.160;2023-05-07T05:36:28;3.83;;;2.40;;
3465;SDS011;1747;48.884;9.160;2023-05-07T05:38:57;3.28;;;2.50;;
3465;SDS011;1747;48.884;9.160;2023-05-07T05:41:23;3.65;;;2.70;;
3465;SDS011;1747;48.884;9.160;2023-05-07T05:43:50;3.17;;;2.88;;
3465;SDS011;1747;48.884;9.160;2023-05-07T05:46:17;5.00;;;2.88;;
3465;SDS011;1747;48.884;9.160;2023-05-07T05:48:44;4.40;;;2.60;;
3465;SDS011;1747;48.884;9.160;2023-05-07T05:51:11;4.55;;;2.70;;
3465;SDS011;1747;48.884;9.160;2023-05-07T05:53:38;4.70;;;3.30;;
3465;SDS011;1747;48.884;9.160;2023-05-07T05:56:06;3.63;;;2.90;;
3465;SDS011;1747;48.884;9.160;2023-05-07T05:58:33;3.30;;;2.80;;
3465;SDS011;1747;48.884;9.160;2023-05-07T06:01:00;4.18;;;3.17;;
3465;SDS011;1747;48.884;9.160;2023-05-07T06:03:28;2.53;;;2.28;;
3465;SDS011;1747;48.884;9.160;2023-05-07T06:05:55;2.83;;;2.50;;
3465;SDS011;1747;48.884;9.160;2023-05-07T06:08:22;2.83;;;2.30;;
3465;SDS011;1747;48.884;9.160;2023-05-07T06:10:49;2.88;;;2.58;;
3465;SDS011;1747;48.884;9.160;2023-05-07T06:13:17;2.70;;;2.22;;
3465;SDS011;1747;48.884;9.160;2023-05-07T06:15:44;3.20;;;2.30;;
3465;SDS011;1747;48.884;9.160;2023-05-07T06:18:11;5.05;;;2.53;;
3465;SDS011;1747;48.884;9.160;2023-05-07T06:20:38;3.00;;;2.15;;
3465;SDS011;1747;48.884;9.160;2023-05-07T06:23:05;3.22;;;2.20;;
3465;SDS011;1747;48.884;9.160;2023-05-07T06:25:32;4.82;;;2.30;;
3465;SDS011;1747;48.884;9.160;2023-05-07T06:27:59;2.90;;;1.92;;
3465;SDS011;1747;48.884;9.160;2023-05-07T06:30:28;3.40;;;2.33;;
3465;SDS011;1747;48.884;9.160;2023-05-07T06:32:55;3.60;;;2.00;;
3465;SDS011;1747;48.884;9.160;2023-05-07T06:35:25;3.35;;;2.30;;
3465;SDS011;1747;48.884;9.160;2023-05-07T06:37:55;6.63;;;2.78;;
3465;SDS011;1747;48.884;9.160;2023-05-07T06:40:26;5.65;;;2.33;;
3465;SDS011;1747;48.884;9.160;2023-05-07T06:42:54;2.97;;;2.25;;
3465;SDS011;1747;48.884;9.160;2023-05-07T06:45:20;3.67;;;2.78;;
3465;SDS011;1747;48.884;9.160;2023-05-07T06:47:48;3.70;;;2.95;;
3465;SDS011;1747;48.884;9.160;2023-05-07T06:50:15;3.95;;;3.20;;
3465;SDS011;1747;48.884;9.160;2023-05-07T06:52:42;4.88;;;3.00;;
3465;SDS011;1747;48.884;9.160;2023-05-07T06:55:09;4.35;;;3.13;;
3465;SDS011;1747;48.884;9.160;2023-05-07T06:57:37;5.45;;;2.67;;
3465;SDS011;1747;48.884;9.160;2023-05-07T07:00:04;3.08;;;2.13;;
3465;SDS011;1747;48.884;9.160;2023-05-07T07:02:33;2.33;;;2.13;;
3465;SDS011;1747;48.884;9.160;2023-05-07T07:05:02;5.10;;;2.38;;
3465;SDS011;1747;48.884;9.160;2023-05-07T07:07:29;3.53;;;2.47;;
3465;SDS011;1747;48.884;9.160;2023-05-07T07:09:55;3.10;;;2.25;;
3465;SDS011;1747;48.884;9.160;2023-05-07T07:12:22;2.92;;;2.35;;
3465;SDS011;1747;48.884;9.160;2023-05-07T07:14:51;2.72;;;2.17;;
3465;SDS011;1747;48.884;9.160;2023-05-07T07:17:20;3.00;;;2.50;;
3465;SDS011;1747;48.884;9.160;2023-05-07T07:19:47;4.20;;;2.40;;
3465;SDS011;1747;48.884;9.160;2023-05-07T07:22:15;3.63;;;2.60;;
3465;SDS011;1747;48.884;9.160;2023-05-07T07:24:42;3.58;;;2.60;;
3465;SDS011;1747;48.884;9.160;2023-05-07T07:27:09;3.47;;;2.70;;
3465;SDS011;1747;48.884;9.160;2023-05-07T07:29:36;3.85;;;2.40;;
3465;SDS011;1747;48.884;9.160;2023-05-07T07:32:03;4.50;;;2.40;;
3465;SDS011;1747;48.884;9.160;2023-05-07T07:34:30;5.15;;;2.45;;
3465;SDS011;1747;48.884;9.160;2023-05-07T07:36:57;3.08;;;2.47;;
3465;SDS011;1747;48.884;9.160;2023-05-07T07:39:25;2.67;;;2.47;;
3465;SDS011;1747;48.884;9.160;2023-05-07T07:41:52;4.40;;;2.90;;
3465;SDS011;1747;48.884;9.160;2023-05-07T07:44:18;3.25;;;2.60;;
3465;SDS011;1747;48.884;9.160;2023-05-07T07:46:45;3.50;;;2.95;;
3465;SDS011;1747;48.884;9.160;2023-05-07T07:49:12;3.03;;;2.38;;
3465;SDS011;1747;48.884;9.160;2023-05-07T07:51:39;3.30;;;3.00;;
3465;SDS011;1747;48.884;9.160;2023-05-07T07:54:06;4.97;;;2.90;;
3465;SDS011;1747;48.884;9.160;2023-05-07T07:56:34;3.40;;;2.72;;
3465;SDS011;1747;48.884;9.160;2023-05-07T07:59:01;4.47;;;2.90;;
3465;SDS011;1747;48.884;9.160;2023-05-07T08:01:29;4.10;;;2.67;;
3465;SDS011;1747;48.884;9.160;2023-05-07T08:03:56;4.13;;;2.70;;
3465;SDS011;1747;48.884;9.160;2023-05-07T08:06:23;3.22;;;2.50;;
3465;SDS011;1747;48.884;9.160;2023-05-07T08:08:51;4.00;;;2.90;;
3465;SDS011;1747;48.884;9.160;2023-05-07T08:11:18;3.08;;;2.53;;
3465;SDS011;1747;48.884;9.160;2023-05-07T08:13:47;3.15;;;2.78;;
3465;SDS011;1747;48.884;9.160;2023-05-07T08:16:17;5.25;;;2.90;;
3465;SDS011;1747;48.884;9.160;2023-05-07T08:18:44;3.45;;;3.15;;
3465;SDS011;1747;48.884;9.160;2023-05-07T08:21:11;4.10;;;2.90;;
3465;SDS011;1747;48.884;9.160;2023-05-07T08:23:38;3.35;;;2.53;;
3465;SDS011;1747;48.884;9.160;2023-05-07T08:26:04;3.35;;;2.95;;
3465;SDS011;1747;48.884;9.160;2023-05-07T08:28:31;4.28;;;3.25;;
3465;SDS011;1747;48.884;9.160;2023-05-07T08:30:59;5.25;;;2.90;;
3465;SDS011;1747;48.884;9.160;2023-05-07T08:33:26;4.28;;;2.88;;
3465;SDS011;1747;48.884;9.160;2023-05-07T08:35:53;3.80;;;2.30;;
3465;SDS011;1747;48.884;9.160;2023-05-07T08:38:20;4.80;;;3.03;;
3465;SDS011;1747;48.884;9.160;2023-05-07T08:40:47;4.60;;;3.28;;
3465;SDS011;1747;48.884;9.160;2023-05-07T08:43:14;4.35;;;3.30;;
3465;SDS011;1747;48.884;9.160;2023-05-07T08:45:41;4.30;;;3.00;;
3465;SDS011;1747;48.884;9.160;2023-05-07T08:48:14;3.63;;;3.17;;
3465;SDS011;1747;48.884;9.160;2023-05-07T08:50:41;4.70;;;3.40;;
3465;SDS011;1747;48.884;9.160;2023-05-07T08:53:08;5.00;;;4.10;;
3465;SDS011;1747;48.884;9.160;2023-05-07T08:55:35;4.63;;;3.60;;
3465;SDS011;1747;48.884;9.160;2023-05-07T08:58:02;4.63;;;3.10;;
3465;SDS011;1747;48.884;9.160;2023-05-07T09:00:29;3.55;;;3.05;;
3465;SDS011;1747;48.884;9.160;2023-05-07T09:02:56;4.72;;;3.85;;
3465;SDS011;1747;48.884;9.160;2023-05-07T09:05:24;5.40;;;3.15;;
3465;SDS011;1747;48.884;9.160;2023-05-07T09:07:51;7.30;;;4.05;;
3465;SDS011;1747;48.884;9.160;2023-05-07T09:10:18;5.35;;;3.80;;
3465;SDS011;1747;48.884;9.160;2023-05-07T09:12:46;4.00;;;3.47;;
3465;SDS011;1747;48.884;9.160;2023-05-07T09:15:13;5.50;;;3.75;;
3465;SDS011;1747;48.884;9.160;2023-05-07T09:17:40;4.10;;;3.70;;
3465;SDS011;1747;48.884;9.160;2023-05-07T09:20:07;4.65;;;3.63;;
3465;SDS011;1747;48.884;9.160;2023-05-07T09:22:37;4.00;;;3.50;;
3465;SDS011;1747;48.884;9.160;2023-05-07T09:25:05;4.22;;;3.20;;
3465;SDS011;1747;48.884;9.160;2023-05-07T09:27:33;3.58;;;3.10;;
3465;SDS011;1747;48.884;9.160;2023-05-07T09:30:02;3.80;;;3.50;;
3465;SDS011;1747;48.884;9.160;2023-05-07T09:32:33;4.35;;;2.95;;
3465;SDS011;1747;48.884;9.160;2023-05-07T09:35:01;3.58;;;3.17;;
3465;SDS011;1747;48.884;9.160;2023-05-07T09:37:28;3.22;;;2.90;;
3465;SDS011;1747;48.884;9.160;2023-05-07T09:39:59;4.15;;;2.78;;
3465;SDS011;1747;48.884;9.160;2023-05-07T09:42:27;4.43;;;2.58;;
3465;SDS011;1747;48.884;9.160;2023-05-07T09:44:54;4.15;;;3.20;;
3465;SDS011;1747;48.884;9.160;2023-05-07T09:47:22;4.38;;;3.35;;
3465;SDS011;1747;48.884;9.160;2023-05-07T09:49:52;4.65;;;3.35;;
3465;SDS011;1747;48.884;9.160;2023-05-07T09:52:23;4.20;;;3.38;;
3465;SDS011;1747;48.884;9.160;2023-05-07T09:54:53;3.15;;;2.85;;
3465;SDS011;1747;48.884;9.160;2023-05-07T09:57:25;3.17;;;2.88;;
3465;SDS011;1747;48.884;9.160;2023-05-07T09:59:53;3.28;;;2.92;;
3465;SDS011;1747;48.884;9.160;2023-05-07T10:02:22;8.35;;;6.60;;
3465;SDS011;1747;48.884;9.160;2023-05-07T10:04:51;3.83;;;3.13;;
3465;SDS011;1747;48.884;9.160;2023-05-07T10:07:19;4.07;;;3.20;;
3465;SDS011;1747;48.884;9.160;2023-05-07T10:09:47;3.20;;;2.80;;
3465;SDS011;1747;48.884;9.160;2023-05-07T10:12:15;3.35;;;2.88;;
3465;SDS011;1747;48.884;9.160;2023-05-07T10:14:44;3.47;;;2.85;;
3465;SDS011;1747;48.884;9.160;2023-05-07T10:17:13;3.40;;;3.10;;
3465;SDS011;1747;48.884;9.160;2023-05-07T10:19:42;5.05;;;3.10;;
3465;SDS011;1747;48.884;9.160;2023-05-07T10:22:10;7.68;;;3.10;;
3465;SDS011;1747;48.884;9.160;2023-05-07T10:24:39;2.92;;;2.63;;
3465;SDS011;1747;48.884;9.160;2023-05-07T10:27:11;3.40;;;2.80;;
3465;SDS011;1747;48.884;9.160;2023-05-07T10:29:42;3.03;;;2.70;;
3465;SDS011;1747;48.884;9.160;2023-05-07T10:32:26;4.43;;;3.22;;
3465;SDS011;1747;48.884;9.160;2023-05-07T10:35:02;5.03;;;2.75;;
3465;SDS011;1747;48.884;9.160;2023-05-07T10:37:32;6.20;;;3.72;;
3465;SDS011;1747;48.884;9.160;2023-05-07T10:40:01;5.53;;;3.30;;
3465;SDS011;1747;48.884;9.160;2023-05-07T10:42:28;3.40;;;2.80;;
3465;SDS011;1747;48.884;9.160;2023-05-07T10:44:56;4.88;;;3.28;;
3465;SDS011;1747;48.884;9.160;2023-05-07T10:47:23;3.65;;;3.28;;
3465;SDS011;1747;48.884;9.160;2023-05-07T10:58:52;2.55;;;2.35;;
3465;SDS011;1747;48.884;9.160;2023-05-07T11:04:19;4.82;;;2.60;;
3465;SDS011;1747;48.884;9.160;2023-05-07T11:09:54;2.92;;;2.63;;
3465;SDS011;1747;48.884;9.160;2023-05-07T11:12:47;3.33;;;2.78;;
3465;SDS011;1747;48.884;9.160;2023-05-07T11:15:38;3.67;;;2.70;;
3465;SDS011;1747;48.884;9.160;2023-05-07T11:18:09;4.35;;;2.80;;
3465;SDS011;1747;48.884;9.160;2023-05-07T11:20:44;3.67;;;2.88;;
3465;SDS011;1747;48.884;9.160;2023-05-07T11:26:27;2.83;;;2.30;;
3465;SDS011;1747;48.884;9.160;2023-05-07T11:31:43;4.65;;;3.53;;
3465;SDS011;1747;48.884;9.160;2023-05-07T11:34:15;3.13;;;2.78;;
3465;SDS011;1747;48.884;9.160;2023-05-07T11:36:47;3.67;;;2.90;;
3465;SDS011;1747;48.884;9.160;2023-05-07T11:39:24;4.45;;;2.75;;
3465;SDS011;1747;48.884;9.160;2023-05-07T11:41:52;2.45;;;2.22;;
3465;SDS011;1747;48.884;9.160;2023-05-07T11:44:19;3.13;;;2.33;;
3465;SDS011;1747;48.884;9.160;2023-05-07T11:46:46;3.38;;;2.63;;
3465;SDS011;1747;48.884;9.160;2023-05-07T11:49:15;2.53;;;2.33;;
3465;SDS011;1747;48.884;9.160;2023-05-07T11:51:43;3.83;;;2.75;;
3465;SDS011;1747;48.884;9.160;2023-05-07T11:54:11;4.53;;;2.55;;
3465;SDS011;1747;48.884;9.160;2023-05-07T11:56:42;2.97;;;2.35;;
3465;SDS011;1747;48.884;9.160;2023-05-07T11:59:11;5.85;;;2.90;;
3465;SDS011;1747;48.884;9.160;2023-05-07T12:01:38;3.03;;;2.70;;
3465;SDS011;1747;48.884;9.160;2023-05-07T12:04:04;6.22;;;2.60;;
3465;SDS011;1747;48.884;9.160;2023-05-07T12:06:35;3.83;;;2.08;;
3465;SDS011;1747;48.884;9.160;2023-05-07T12:09:03;3.00;;;1.80;;
3465;SDS011;1747;48.884;9.160;2023-05-07T12:11:32;5.70;;;1.98;;
3465;SDS011;1747;48.884;9.160;2023-05-07T12:13:58;2.25;;;2.00;;
3465;SDS011;1747;48.884;9.160;2023-05-07T12:16:25;3.30;;;2.28;;
3465;SDS011;1747;48.884;9.160;2023-05-07T12:18:55;3.47;;;2.08;;
3465;SDS011;1747;48.884;9.160;2023-05-07T12:21:24;4.25;;;2.40;;
3465;SDS011;1747;48.884;9.160;2023-05-07T12:23:52;2.72;;;2.00;;
3465;SDS011;1747;48.884;9.160;2023-05-07T12:26:19;2.67;;;2.47;;
3465;SDS011;1747;48.884;9.160;2023-05-07T12:28:47;2.67;;;2.13;;
3465;SDS011;1747;48.884;9.160;2023-05-07T12:31:13;3.22;;;2.60;;
3465;SDS011;1747;48.884;9.160;2023-05-07T12:33:41;4.30;;;2.00;;
3465;SDS011;1747;48.884;9.160;2023-05-07T12:36:08;3.67;;;2.35;;
3465;SDS011;1747;48.884;9.160;2023-05-07T12:38:38;2.50;;;2.05;;
3465;SDS011;1747;48.884;9.160;2023-05-07T12:41:08;2.80;;;2.17;;
3465;SDS011;1747;48.884;9.160;2023-05-07T12:43:36;3.13;;;2.20;;
3465;SDS011;1747;48.884;9.160;2023-05-07T12:46:04;3.53;;;2.15;;
3465;SDS011;1747;48.884;9.160;2023-05-07T12:48:32;2.58;;;2.28;;
3465;SDS011;1747;48.884;9.160;2023-05-07T12:51:00;3.90;;;2.20;;
3465;SDS011;1747;48.884;9.160;2023-05-07T12:53:28;2.95;;;2.00;;
3465;SDS011;1747;48.884;9.160;2023-05-07T12:55:57;3.45;;;2.15;;
3465;SDS011;1747;48.884;9.160;2023-05-07T12:58:27;3.92;;;2.65;;
3465;SDS011;1747;48.884;9.160;2023-05-07T13:00:55;2.63;;;2.42;;
3465;SDS011;1747;48.884;9.160;2023-05-07T13:03:24;3.60;;;2.53;;
3465;SDS011;1747;48.884;9.160;2023-05-07T13:05:52;2.63;;;2.33;;
3465;SDS011;1747;48.884;9.160;2023-05-07T13:08:23;3.83;;;2.60;;
3465;SDS011;1747;48.884;9.160;2023-05-07T13:10:54;2.45;;;2.20;;
3465;SDS011;1747;48.884;9.160;2023-05-07T13:13:21;2.35;;;2.15;;
3465;SDS011;1747;48.884;9.160;2023-05-07T13:15:49;2.40;;;2.08;;
3465;SDS011;1747;48.884;9.160;2023-05-07T13:18:16;3.08;;;1.92;;
3465;SDS011;1747;48.884;9.160;2023-05-07T13:20:43;3.03;;;1.60;;
3465;SDS011;1747;48.884;9.160;2023-05-07T13:23:10;3.22;;;1.88;;
3465;SDS011;1747;48.884;9.160;2023-05-07T13:25:37;1.85;;;1.48;;
3465;SDS011;1747;48.884;9.160;2023-05-07T13:28:04;2.15;;;1.55;;
3465;SDS011;1747;48.884;9.160;2023-05-07T13:30:31;3.92;;;1.63;;
3465;SDS011;1747;48.884;9.160;2023-05-07T13:32:59;5.93;;;2.00;;
3465;SDS011;1747;48.884;9.160;2023-05-07T13:35:26;3.08;;;1.33;;
3465;SDS011;1747;48.884;9.160;2023-05-07T13:37:53;2.20;;;1.17;;
3465;SDS011;1747;48.884;9.160;2023-05-07T13:40:20;2.22;;;1.40;;
3465;SDS011;1747;48.884;9.160;2023-05-07T13:42:47;2.15;;;1.20;;
3465;SDS011;1747;48.884;9.160;2023-05-07T13:45:15;2.08;;;1.20;;
3465;SDS011;1747;48.884;9.160;2023-05-07T13:47:42;2.17;;;1.15;;
3465;SDS011;1747;48.884;9.160;2023-05-07T13:50:11;2.45;;;1.30;;
3465;SDS011;1747;48.884;9.160;2023-05-07T13:52:38;3.20;;;1.60;;
3465;SDS011;1747;48.884;9.160;2023-05-07T13:55:08;2.80;;;1.50;;
3465;SDS011;1747;48.884;9.160;2023-05-07T13:57:35;1.50;;;1.35;;
3465;SDS011;1747;48.884;9.160;2023-05-07T14:00:02;3.25;;;1.90;;
3465;SDS011;1747;48.884;9.160;2023-05-07T14:02:30;1.95;;;1.17;;
3465;SDS011;1747;48.884;9.160;2023-05-07T14:04:56;1.95;;;1.10;;
3465;SDS011;1747;48.884;9.160;2023-05-07T14:07:25;2.90;;;1.13;;
3465;SDS011;1747;48.884;9.160;2023-05-07T14:09:51;2.33;;;0.73;;
3465;SDS011;1747;48.884;9.160;2023-05-07T14:12:18;1.58;;;0.80;;
3465;SDS011;1747;48.884;9.160;2023-05-07T14:14:45;1.73;;;0.80;;
3465;SDS011;1747;48.884;9.160;2023-05-07T14:17:12;4.78;;;0.90;;
3465;SDS011;1747;48.884;9.160;2023-05-07T14:19:38;10.05;;;3.42;;
3465;SDS011;1747;48.884;9.160;2023-05-07T14:22:05;2.97;;;1.20;;
3465;SDS011;1747;48.884;9.160;2023-05-07T14:24:33;0.95;;;0.82;;
3465;SDS011;1747;48.884;9.160;2023-05-07T14:27:00;1.60;;;0.82;;
3465;SDS011;1747;48.884;9.160;2023-05-07T14:29:27;2.30;;;1.10;;
3465;SDS011;1747;48.884;9.160;2023-05-07T14:31:54;2.05;;;1.20;;
3465;SDS011;1747;48.884;9.160;2023-05-07T14:34:20;4.00;;;1.25;;
3465;SDS011;1747;48.884;9.160;2023-05-07T14:36:47;5.22;;;1.50;;
3465;SDS011;1747;48.884;9.160;2023-05-07T14:39:14;1.92;;;1.52;;
3465;SDS011;1747;48.884;9.160;2023-05-07T14:41:42;2.72;;;1.70;;
3465;SDS011;1747;48.884;9.160;2023-05-07T14:44:09;1.70;;;1.60;;
3465;SDS011;1747;48.884;9.160;2023-05-07T14:46:36;2.28;;;1.52;;
3465;SDS011;1747;48.884;9.160;2023-05-07T14:49:02;1.73;;;1.40;;
3465;SDS011;1747;48.884;9.160;2023-05-07T14:51:29;1.85;;;1.65;;
3465;SDS011;1747;48.884;9.160;2023-05-07T14:53:56;3.13;;;1.73;;
3465;SDS011;1747;48.884;9.160;2023-05-07T14:56:26;3.10;;;1.70;;
3465;SDS011;1747;48.884;9.160;2023-05-07T14:58:55;3.05;;;1.50;;
3465;SDS011;1747;48.884;9.160;2023-05-07T15:01:21;3.58;;;1.88;;
3465;SDS011;1747;48.884;9.160;2023-05-07T15:03:48;5.88;;;2.28;;
3465;SDS011;1747;48.884;9.160;2023-05-07T15:06:15;2.65;;;2.00;;
3465;SDS011;1747;48.884;9.160;2023-05-07T15:08:42;2.75;;;1.83;;
3465;SDS011;1747;48.884;9.160;2023-05-07T15:11:09;4.90;;;2.15;;
3465;SDS011;1747;48.884;9.160;2023-05-07T15:13:35;2.13;;;1.88;;
3465;SDS011;1747;48.884;9.160;2023-05-07T15:16:04;3.55;;;2.35;;
3465;SDS011;1747;48.884;9.160;2023-05-07T15:18:30;3.47;;;2.35;;
3465;SDS011;1747;48.884;9.160;2023-05-07T15:20:57;3.80;;;1.88;;
3465;SDS011;1747;48.884;9.160;2023-05-07T15:23:24;2.15;;;1.90;;
3465;SDS011;1747;48.884;9.160;2023-05-07T15:25:51;4.47;;;2.03;;
3465;SDS011;1747;48.884;9.160;2023-05-07T15:28:18;2.22;;;1.95;;
3465;SDS011;1747;48.884;9.160;2023-05-07T15:30:45;2.38;;;2.17;;
3465;SDS011;1747;48.884;9.160;2023-05-07T15:33:13;3.08;;;2.05;;
3465;SDS011;1747;48.884;9.160;2023-05-07T15:35:40;2.65;;;1.90;;
3465;SDS011;1747;48.884;9.160;2023-05-07T15:38:07;4.05;;;2.20;;
3465;SDS011;1747;48.884;9.160;2023-05-07T15:40:34;4.85;;;2.50;;